sensor_id;sensor_type;location;lat;lon;timestamp;temperature;humidity
52181;DHT22;38158;53.338;6.514;2023-07-28T00:02:05;17.40;99.90
52181;DHT22;38158;53.338;6.514;2023-07-28T00:04:33;17.40;99.90
52181;DHT22;38158;53.338;6.514;2023-07-28T00:06:59;17.40;99.90
52181;DHT22;38158;53.338;6.514;2023-07-28T00:09:24;17.40;99.90
52181;DHT22;38158;53.338;6.514;2023-07-28T00:11:50;17.40;99.90
52181;DHT22;38158;53.338;6.514;2023-07-28T00:14:16;17.40;99.90
52181;DHT22;38158;53.338;6.514;2023-07-28T00:16:42;17.40;99.90
52181;DHT22;38158;53.338;6.514;2023-07-28T00:19:07;17.40;99.90
52181;DHT22;38158;53.338;6.514;2023-07-28T00:21:33;17.40;99.90
52181;DHT22;38158;53.338;6.514;2023-07-28T00:23:59;17.40;99.90
52181;DHT22;38158;53.338;6.514;2023-07-28T00:26:24;17.40;99.90
52181;DHT22;38158;53.338;6.514;2023-07-28T00:28:50;17.40;99.90
52181;DHT22;38158;53.338;6.514;2023-07-28T00:31:16;17.40;99.90
52181;DHT22;38158;53.338;6.514;2023-07-28T00:33:41;17.40;99.90
52181;DHT22;38158;53.338;6.514;2023-07-28T00:36:07;17.40;99.90
52181;DHT22;38158;53.338;6.514;2023-07-28T00:38:33;17.40;99.90
52181;DHT22;38158;53.338;6.514;2023-07-28T00:40:59;17.40;99.90
52181;DHT22;38158;53.338;6.514;2023-07-28T00:43:24;17.40;99.90
52181;DHT22;38158;53.338;6.514;2023-07-28T00:45:50;17.40;99.90
52181;DHT22;38158;53.338;6.514;2023-07-28T00:48:16;17.40;99.90
52181;DHT22;38158;53.338;6.514;2023-07-28T00:50:45;17.40;99.90
52181;DHT22;38158;53.338;6.514;2023-07-28T00:53:10;17.40;99.90
52181;DHT22;38158;53.338;6.514;2023-07-28T00:55:37;17.40;99.90
52181;DHT22;38158;53.338;6.514;2023-07-28T00:58:03;17.40;99.90
52181;DHT22;38158;53.338;6.514;2023-07-28T01:00:29;17.40;99.90
52181;DHT22;38158;53.338;6.514;2023-07-28T01:02:55;17.40;99.90
52181;DHT22;38158;53.338;6.514;2023-07-28T01:05:26;17.40;99.90
52181;DHT22;38158;53.338;6.514;2023-07-28T01:08:08;17.40;99.90
52181;DHT22;38158;53.338;6.514;2023-07-28T01:10:38;17.40;99.90
52181;DHT22;38158;53.338;6.514;2023-07-28T01:13:04;17.40;99.90
52181;DHT22;38158;53.338;6.514;2023-07-28T01:15:30;17.40;99.90
52181;DHT22;38158;53.338;6.514;2023-07-28T01:17:55;17.40;99.90
52181;DHT22;38158;53.338;6.514;2023-07-28T01:20:24;17.40;99.90
52181;DHT22;38158;53.338;6.514;2023-07-28T01:23:05;17.40;99.90
52181;DHT22;38158;53.338;6.514;2023-07-28T01:28:03;17.40;99.90
52181;DHT22;38158;53.338;6.514;2023-07-28T01:30:30;17.40;99.90
52181;DHT22;38158;53.338;6.514;2023-07-28T01:32:56;17.40;99.90
52181;DHT22;38158;53.338;6.514;2023-07-28T01:35:23;17.40;99.90
52181;DHT22;38158;53.338;6.514;2023-07-28T01:37:48;17.40;99.90
52181;DHT22;38158;53.338;6.514;2023-07-28T01:40:19;17.40;99.90
52181;DHT22;38158;53.338;6.514;2023-07-28T01:42:45;17.40;99.90
52181;DHT22;38158;53.338;6.514;2023-07-28T01:45:11;17.40;99.90
52181;DHT22;38158;53.338;6.514;2023-07-28T01:47:37;17.40;99.90
52181;DHT22;38158;53.338;6.514;2023-07-28T01:50:03;17.50;99.90
52181;DHT22;38158;53.338;6.514;2023-07-28T01:52:29;17.40;99.90
52181;DHT22;38158;53.338;6.514;2023-07-28T01:54:55;17.50;99.90
52181;DHT22;38158;53.338;6.514;2023-07-28T01:57:21;17.70;99.90
52181;DHT22;38158;53.338;6.514;2023-07-28T01:59:46;17.50;99.90
52181;DHT22;38158;53.338;6.514;2023-07-28T02:02:12;17.40;99.90
52181;DHT22;38158;53.338;6.514;2023-07-28T02:04:38;17.40;99.90
52181;DHT22;38158;53.338;6.514;2023-07-28T02:07:04;17.50;99.90
52181;DHT22;38158;53.338;6.514;2023-07-28T02:09:29;17.40;99.90
52181;DHT22;38158;53.338;6.514;2023-07-28T02:11:55;17.50;99.90
52181;DHT22;38158;53.338;6.514;2023-07-28T02:14:21;17.40;99.90
52181;DHT22;38158;53.338;6.514;2023-07-28T02:16:46;17.50;99.90
52181;DHT22;38158;53.338;6.514;2023-07-28T02:19:12;17.40;99.90
52181;DHT22;38158;53.338;6.514;2023-07-28T02:21:37;17.40;99.90
52181;DHT22;38158;53.338;6.514;2023-07-28T02:24:03;17.40;99.90
52181;DHT22;38158;53.338;6.514;2023-07-28T02:26:29;17.40;99.90
52181;DHT22;38158;53.338;6.514;2023-07-28T02:28:55;17.50;99.90
52181;DHT22;38158;53.338;6.514;2023-07-28T02:31:21;17.50;99.90
52181;DHT22;38158;53.338;6.514;2023-07-28T02:33:47;17.40;99.90
52181;DHT22;38158;53.338;6.514;2023-07-28T02:36:12;17.40;99.90
52181;DHT22;38158;53.338;6.514;2023-07-28T02:38:38;17.50;99.90
52181;DHT22;38158;53.338;6.514;2023-07-28T02:41:03;17.40;99.90
52181;DHT22;38158;53.338;6.514;2023-07-28T02:43:30;17.50;99.90
52181;DHT22;38158;53.338;6.514;2023-07-28T02:45:57;17.50;99.90
52181;DHT22;38158;53.338;6.514;2023-07-28T02:48:23;17.50;99.90
52181;DHT22;38158;53.338;6.514;2023-07-28T02:50:50;17.50;99.90
52181;DHT22;38158;53.338;6.514;2023-07-28T02:53:16;17.40;99.90
52181;DHT22;38158;53.338;6.514;2023-07-28T02:55:46;17.50;99.90
52181;DHT22;38158;53.338;6.514;2023-07-28T02:58:12;17.50;99.90
52181;DHT22;38158;53.338;6.514;2023-07-28T03:00:39;17.50;99.90
52181;DHT22;38158;53.338;6.514;2023-07-28T03:03:10;17.50;99.90
52181;DHT22;38158;53.338;6.514;2023-07-28T03:05:36;17.50;99.90
52181;DHT22;38158;53.338;6.514;2023-07-28T03:08:03;17.50;99.90
52181;DHT22;38158;53.338;6.514;2023-07-28T03:10:28;17.50;99.90
52181;DHT22;38158;53.338;6.514;2023-07-28T03:12:55;17.50;99.90
52181;DHT22;38158;53.338;6.514;2023-07-28T03:15:21;17.50;99.90
52181;DHT22;38158;53.338;6.514;2023-07-28T03:17:48;17.50;99.90
52181;DHT22;38158;53.338;6.514;2023-07-28T03:20:14;17.50;99.90
52181;DHT22;38158;53.338;6.514;2023-07-28T03:22:40;17.50;99.90
52181;DHT22;38158;53.338;6.514;2023-07-28T03:25:05;17.40;99.90
52181;DHT22;38158;53.338;6.514;2023-07-28T03:27:31;17.50;99.90
52181;DHT22;38158;53.338;6.514;2023-07-28T03:29:57;17.40;99.90
52181;DHT22;38158;53.338;6.514;2023-07-28T03:32:22;17.50;99.90
52181;DHT22;38158;53.338;6.514;2023-07-28T03:34:48;17.50;99.90
52181;DHT22;38158;53.338;6.514;2023-07-28T03:37:14;17.40;99.90
52181;DHT22;38158;53.338;6.514;2023-07-28T03:39:39;17.40;99.90
52181;DHT22;38158;53.338;6.514;2023-07-28T03:42:06;17.50;99.90
52181;DHT22;38158;53.338;6.514;2023-07-28T03:44:32;17.50;99.90
52181;DHT22;38158;53.338;6.514;2023-07-28T03:46:57;17.40;99.90
52181;DHT22;38158;53.338;6.514;2023-07-28T03:49:23;17.40;99.90
52181;DHT22;38158;53.338;6.514;2023-07-28T03:51:49;17.40;99.90
52181;DHT22;38158;53.338;6.514;2023-07-28T03:54:14;17.50;99.90
52181;DHT22;38158;53.338;6.514;2023-07-28T03:56:40;17.40;99.90
52181;DHT22;38158;53.338;6.514;2023-07-28T03:59:06;17.40;99.90
52181;DHT22;38158;53.338;6.514;2023-07-28T04:01:31;17.40;99.90
52181;DHT22;38158;53.338;6.514;2023-07-28T04:03:57;17.40;99.90
52181;DHT22;38158;53.338;6.514;2023-07-28T04:06:56;17.40;99.90
52181;DHT22;38158;53.338;6.514;2023-07-28T04:09:21;17.50;99.90
52181;DHT22;38158;53.338;6.514;2023-07-28T04:11:47;17.40;99.90
52181;DHT22;38158;53.338;6.514;2023-07-28T04:14:13;17.40;99.90
52181;DHT22;38158;53.338;6.514;2023-07-28T04:16:40;17.40;99.90
52181;DHT22;38158;53.338;6.514;2023-07-28T04:19:05;17.40;99.90
52181;DHT22;38158;53.338;6.514;2023-07-28T04:21:31;17.40;99.90
52181;DHT22;38158;53.338;6.514;2023-07-28T04:23:57;17.40;99.90
52181;DHT22;38158;53.338;6.514;2023-07-28T04:26:24;17.40;99.90
52181;DHT22;38158;53.338;6.514;2023-07-28T04:28:50;17.40;99.90
52181;DHT22;38158;53.338;6.514;2023-07-28T04:31:16;17.40;99.90
52181;DHT22;38158;53.338;6.514;2023-07-28T04:33:42;17.50;99.90
52181;DHT22;38158;53.338;6.514;2023-07-28T04:36:08;17.50;99.90
52181;DHT22;38158;53.338;6.514;2023-07-28T04:38:34;17.50;99.90
52181;DHT22;38158;53.338;6.514;2023-07-28T04:41:00;17.50;99.90
52181;DHT22;38158;53.338;6.514;2023-07-28T04:43:26;17.50;99.90
52181;DHT22;38158;53.338;6.514;2023-07-28T04:45:51;17.50;99.90
52181;DHT22;38158;53.338;6.514;2023-07-28T04:48:17;17.40;99.90
52181;DHT22;38158;53.338;6.514;2023-07-28T04:50:44;17.50;99.90
52181;DHT22;38158;53.338;6.514;2023-07-28T04:53:10;17.50;99.90
52181;DHT22;38158;53.338;6.514;2023-07-28T04:55:35;17.40;99.90
52181;DHT22;38158;53.338;6.514;2023-07-28T04:58:01;17.50;99.90
52181;DHT22;38158;53.338;6.514;2023-07-28T05:00:27;17.50;99.90
52181;DHT22;38158;53.338;6.514;2023-07-28T05:02:53;17.50;99.90
52181;DHT22;38158;53.338;6.514;2023-07-28T05:05:18;17.50;99.90
52181;DHT22;38158;53.338;6.514;2023-07-28T05:07:44;17.50;99.90
52181;DHT22;38158;53.338;6.514;2023-07-28T05:10:10;17.50;99.90
52181;DHT22;38158;53.338;6.514;2023-07-28T05:12:35;17.50;99.90
52181;DHT22;38158;53.338;6.514;2023-07-28T05:15:01;17.50;99.90
52181;DHT22;38158;53.338;6.514;2023-07-28T05:17:27;17.50;99.90
52181;DHT22;38158;53.338;6.514;2023-07-28T05:19:52;17.50;99.90
52181;DHT22;38158;53.338;6.514;2023-07-28T05:22:18;17.50;99.90
52181;DHT22;38158;53.338;6.514;2023-07-28T05:24:45;17.50;99.90
52181;DHT22;38158;53.338;6.514;2023-07-28T05:27:11;17.50;99.90
52181;DHT22;38158;53.338;6.514;2023-07-28T05:29:37;17.50;99.90
52181;DHT22;38158;53.338;6.514;2023-07-28T05:32:03;17.50;99.90
52181;DHT22;38158;53.338;6.514;2023-07-28T05:34:29;17.50;99.90
52181;DHT22;38158;53.338;6.514;2023-07-28T05:36:55;17.50;99.90
52181;DHT22;38158;53.338;6.514;2023-07-28T05:39:21;17.50;99.90
52181;DHT22;38158;53.338;6.514;2023-07-28T05:41:47;17.60;99.90
52181;DHT22;38158;53.338;6.514;2023-07-28T05:44:12;17.60;99.90
52181;DHT22;38158;53.338;6.514;2023-07-28T05:46:38;17.60;99.90
52181;DHT22;38158;53.338;6.514;2023-07-28T05:49:04;17.60;99.90
52181;DHT22;38158;53.338;6.514;2023-07-28T05:51:30;17.60;99.90
52181;DHT22;38158;53.338;6.514;2023-07-28T05:53:56;17.60;99.90
52181;DHT22;38158;53.338;6.514;2023-07-28T05:56:21;17.70;99.90
52181;DHT22;38158;53.338;6.514;2023-07-28T05:58:48;17.60;99.90
52181;DHT22;38158;53.338;6.514;2023-07-28T06:01:13;17.70;99.90
52181;DHT22;38158;53.338;6.514;2023-07-28T06:03:39;17.70;99.90
52181;DHT22;38158;53.338;6.514;2023-07-28T06:06:05;17.70;99.90
52181;DHT22;38158;53.338;6.514;2023-07-28T06:08:31;17.70;99.90
52181;DHT22;38158;53.338;6.514;2023-07-28T06:10:57;17.60;99.90
52181;DHT22;38158;53.338;6.514;2023-07-28T06:13:23;17.60;99.90
52181;DHT22;38158;53.338;6.514;2023-07-28T06:15:49;17.60;99.90
52181;DHT22;38158;53.338;6.514;2023-07-28T06:18:14;17.60;99.90
52181;DHT22;38158;53.338;6.514;2023-07-28T06:20:42;17.60;99.90
52181;DHT22;38158;53.338;6.514;2023-07-28T06:23:08;17.60;99.90
52181;DHT22;38158;53.338;6.514;2023-07-28T06:25:34;17.70;99.90
52181;DHT22;38158;53.338;6.514;2023-07-28T06:28:00;17.70;99.90
52181;DHT22;38158;53.338;6.514;2023-07-28T06:30:26;17.70;99.90
52181;DHT22;38158;53.338;6.514;2023-07-28T06:32:51;17.80;99.90
52181;DHT22;38158;53.338;6.514;2023-07-28T06:35:17;17.80;99.90
52181;DHT22;38158;53.338;6.514;2023-07-28T06:37:43;17.80;99.90
52181;DHT22;38158;53.338;6.514;2023-07-28T06:40:09;17.80;99.90
52181;DHT22;38158;53.338;6.514;2023-07-28T06:42:36;17.80;99.90
52181;DHT22;38158;53.338;6.514;2023-07-28T06:45:03;17.90;99.90
52181;DHT22;38158;53.338;6.514;2023-07-28T06:47:29;17.90;99.90
52181;DHT22;38158;53.338;6.514;2023-07-28T06:49:54;18.00;99.90
52181;DHT22;38158;53.338;6.514;2023-07-28T06:52:20;18.00;99.90
52181;DHT22;38158;53.338;6.514;2023-07-28T06:54:46;18.10;99.90
52181;DHT22;38158;53.338;6.514;2023-07-28T06:57:14;18.20;99.90
52181;DHT22;38158;53.338;6.514;2023-07-28T06:59:41;18.20;99.90
52181;DHT22;38158;53.338;6.514;2023-07-28T07:02:07;18.20;99.90
52181;DHT22;38158;53.338;6.514;2023-07-28T07:04:32;18.20;99.90
52181;DHT22;38158;53.338;6.514;2023-07-28T07:06:58;18.20;99.90
52181;DHT22;38158;53.338;6.514;2023-07-28T07:09:24;18.20;99.90
52181;DHT22;38158;53.338;6.514;2023-07-28T07:11:50;18.20;99.90
52181;DHT22;38158;53.338;6.514;2023-07-28T07:14:16;18.30;99.90
52181;DHT22;38158;53.338;6.514;2023-07-28T07:16:42;18.30;99.90
52181;DHT22;38158;53.338;6.514;2023-07-28T07:19:08;18.30;99.90
52181;DHT22;38158;53.338;6.514;2023-07-28T07:21:34;18.40;99.90
52181;DHT22;38158;53.338;6.514;2023-07-28T07:24:00;18.50;99.90
52181;DHT22;38158;53.338;6.514;2023-07-28T07:26:27;18.60;99.90
52181;DHT22;38158;53.338;6.514;2023-07-28T07:28:53;18.70;99.90
52181;DHT22;38158;53.338;6.514;2023-07-28T07:31:19;18.80;99.90
52181;DHT22;38158;53.338;6.514;2023-07-28T07:33:46;18.80;99.90
52181;DHT22;38158;53.338;6.514;2023-07-28T07:36:12;18.90;99.90
52181;DHT22;38158;53.338;6.514;2023-07-28T07:38:39;18.80;99.90
52181;DHT22;38158;53.338;6.514;2023-07-28T07:41:06;18.80;99.90
52181;DHT22;38158;53.338;6.514;2023-07-28T07:43:32;18.90;99.90
52181;DHT22;38158;53.338;6.514;2023-07-28T07:45:58;18.90;99.90
52181;DHT22;38158;53.338;6.514;2023-07-28T07:48:23;19.00;99.90
52181;DHT22;38158;53.338;6.514;2023-07-28T07:50:49;19.00;99.90
52181;DHT22;38158;53.338;6.514;2023-07-28T07:53:15;19.00;99.90
52181;DHT22;38158;53.338;6.514;2023-07-28T07:55:41;18.90;99.90
52181;DHT22;38158;53.338;6.514;2023-07-28T07:58:07;18.90;99.90
52181;DHT22;38158;53.338;6.514;2023-07-28T08:00:33;18.90;99.90
52181;DHT22;38158;53.338;6.514;2023-07-28T08:02:59;18.90;99.90
52181;DHT22;38158;53.338;6.514;2023-07-28T08:05:25;19.00;99.90
52181;DHT22;38158;53.338;6.514;2023-07-28T08:07:50;19.00;99.90
52181;DHT22;38158;53.338;6.514;2023-07-28T08:10:16;19.10;99.90
52181;DHT22;38158;53.338;6.514;2023-07-28T08:12:43;19.10;99.90
52181;DHT22;38158;53.338;6.514;2023-07-28T08:15:10;19.10;99.90
52181;DHT22;38158;53.338;6.514;2023-07-28T08:17:36;19.10;99.90
52181;DHT22;38158;53.338;6.514;2023-07-28T08:20:02;19.10;99.90
52181;DHT22;38158;53.338;6.514;2023-07-28T08:22:29;19.10;99.90
52181;DHT22;38158;53.338;6.514;2023-07-28T08:24:54;19.10;99.90
52181;DHT22;38158;53.338;6.514;2023-07-28T08:27:20;19.20;99.90
52181;DHT22;38158;53.338;6.514;2023-07-28T08:29:46;19.40;99.90
52181;DHT22;38158;53.338;6.514;2023-07-28T08:32:11;19.50;99.90
52181;DHT22;38158;53.338;6.514;2023-07-28T08:34:37;19.50;99.90
52181;DHT22;38158;53.338;6.514;2023-07-28T08:37:03;19.50;99.90
52181;DHT22;38158;53.338;6.514;2023-07-28T08:39:29;19.60;99.90
52181;DHT22;38158;53.338;6.514;2023-07-28T08:41:59;19.50;99.90
52181;DHT22;38158;53.338;6.514;2023-07-28T08:44:25;19.50;99.90
52181;DHT22;38158;53.338;6.514;2023-07-28T08:46:52;19.50;99.90
52181;DHT22;38158;53.338;6.514;2023-07-28T08:49:17;19.40;99.90
52181;DHT22;38158;53.338;6.514;2023-07-28T08:51:49;19.40;99.90
52181;DHT22;38158;53.338;6.514;2023-07-28T08:54:15;19.50;99.90
52181;DHT22;38158;53.338;6.514;2023-07-28T08:56:43;19.40;99.90
52181;DHT22;38158;53.338;6.514;2023-07-28T08:59:09;19.40;99.90
52181;DHT22;38158;53.338;6.514;2023-07-28T09:01:41;19.40;99.90
52181;DHT22;38158;53.338;6.514;2023-07-28T09:04:12;19.40;99.90
52181;DHT22;38158;53.338;6.514;2023-07-28T09:06:38;19.50;99.90
52181;DHT22;38158;53.338;6.514;2023-07-28T09:09:07;19.60;99.90
52181;DHT22;38158;53.338;6.514;2023-07-28T09:11:33;19.60;99.90
52181;DHT22;38158;53.338;6.514;2023-07-28T09:14:14;19.60;99.90
52181;DHT22;38158;53.338;6.514;2023-07-28T09:16:42;19.60;99.90
52181;DHT22;38158;53.338;6.514;2023-07-28T09:19:08;19.70;99.90
52181;DHT22;38158;53.338;6.514;2023-07-28T09:21:35;19.70;99.90
52181;DHT22;38158;53.338;6.514;2023-07-28T09:24:04;19.80;99.90
52181;DHT22;38158;53.338;6.514;2023-07-28T09:26:47;19.90;99.90
52181;DHT22;38158;53.338;6.514;2023-07-28T09:29:19;19.90;99.90
52181;DHT22;38158;53.338;6.514;2023-07-28T09:31:50;20.00;99.90
52181;DHT22;38158;53.338;6.514;2023-07-28T09:34:28;20.10;99.90
52181;DHT22;38158;53.338;6.514;2023-07-28T09:36:55;20.10;99.90
52181;DHT22;38158;53.338;6.514;2023-07-28T09:39:21;20.20;99.90
52181;DHT22;38158;53.338;6.514;2023-07-28T09:41:47;20.30;99.90
52181;DHT22;38158;53.338;6.514;2023-07-28T09:44:13;20.30;99.90
52181;DHT22;38158;53.338;6.514;2023-07-28T09:46:59;20.30;99.90
52181;DHT22;38158;53.338;6.514;2023-07-28T09:49:35;20.30;99.90
52181;DHT22;38158;53.338;6.514;2023-07-28T09:52:08;20.20;99.90
52181;DHT22;38158;53.338;6.514;2023-07-28T09:54:39;20.10;99.90
52181;DHT22;38158;53.338;6.514;2023-07-28T09:57:11;20.00;99.90
52181;DHT22;38158;53.338;6.514;2023-07-28T09:59:41;20.10;99.90
52181;DHT22;38158;53.338;6.514;2023-07-28T10:02:08;20.10;99.90
52181;DHT22;38158;53.338;6.514;2023-07-28T10:04:35;20.20;99.90
52181;DHT22;38158;53.338;6.514;2023-07-28T10:07:02;20.10;99.90
52181;DHT22;38158;53.338;6.514;2023-07-28T10:09:30;20.10;99.90
52181;DHT22;38158;53.338;6.514;2023-07-28T10:11:59;20.20;99.90
52181;DHT22;38158;53.338;6.514;2023-07-28T10:14:36;20.30;99.90
52181;DHT22;38158;53.338;6.514;2023-07-28T10:17:06;20.40;99.90
52181;DHT22;38158;53.338;6.514;2023-07-28T10:19:35;20.50;99.90
52181;DHT22;38158;53.338;6.514;2023-07-28T10:22:02;20.70;99.90
52181;DHT22;38158;53.338;6.514;2023-07-28T10:27:36;21.00;99.90
52181;DHT22;38158;53.338;6.514;2023-07-28T10:30:04;21.20;99.90
52181;DHT22;38158;53.338;6.514;2023-07-28T10:32:40;21.10;99.90
52181;DHT22;38158;53.338;6.514;2023-07-28T10:35:08;21.10;99.90
52181;DHT22;38158;53.338;6.514;2023-07-28T10:37:37;21.30;99.90
52181;DHT22;38158;53.338;6.514;2023-07-28T10:42:54;21.50;99.90
52181;DHT22;38158;53.338;6.514;2023-07-28T10:45:22;21.50;99.90
52181;DHT22;38158;53.338;6.514;2023-07-28T10:47:48;21.60;99.90
52181;DHT22;38158;53.338;6.514;2023-07-28T10:50:15;21.70;99.90
52181;DHT22;38158;53.338;6.514;2023-07-28T10:52:45;21.70;99.90
52181;DHT22;38158;53.338;6.514;2023-07-28T10:55:18;21.50;99.90
52181;DHT22;38158;53.338;6.514;2023-07-28T10:57:47;21.30;99.90
52181;DHT22;38158;53.338;6.514;2023-07-28T11:00:15;21.20;99.90
52181;DHT22;38158;53.338;6.514;2023-07-28T11:03:01;21.20;99.90
52181;DHT22;38158;53.338;6.514;2023-07-28T11:05:29;21.40;99.90
52181;DHT22;38158;53.338;6.514;2023-07-28T11:07:56;21.60;99.90
52181;DHT22;38158;53.338;6.514;2023-07-28T11:10:22;21.70;99.90
52181;DHT22;38158;53.338;6.514;2023-07-28T11:12:51;21.60;99.90
52181;DHT22;38158;53.338;6.514;2023-07-28T11:15:18;21.50;99.90
52181;DHT22;38158;53.338;6.514;2023-07-28T11:17:48;21.50;99.90
52181;DHT22;38158;53.338;6.514;2023-07-28T11:20:25;21.70;99.90
52181;DHT22;38158;53.338;6.514;2023-07-28T11:22:55;21.90;99.90
52181;DHT22;38158;53.338;6.514;2023-07-28T11:25:22;22.20;99.90
52181;DHT22;38158;53.338;6.514;2023-07-28T11:27:49;22.40;99.90
52181;DHT22;38158;53.338;6.514;2023-07-28T11:30:17;22.70;99.90
52181;DHT22;38158;53.338;6.514;2023-07-28T11:32:44;22.60;99.90
52181;DHT22;38158;53.338;6.514;2023-07-28T11:35:12;22.60;99.90
52181;DHT22;38158;53.338;6.514;2023-07-28T11:37:39;22.50;99.90
52181;DHT22;38158;53.338;6.514;2023-07-28T11:40:05;22.30;99.90
52181;DHT22;38158;53.338;6.514;2023-07-28T11:42:40;22.20;99.90
52181;DHT22;38158;53.338;6.514;2023-07-28T11:45:07;22.00;99.90
52181;DHT22;38158;53.338;6.514;2023-07-28T11:47:33;21.90;99.90
52181;DHT22;38158;53.338;6.514;2023-07-28T11:49:59;21.90;99.90
52181;DHT22;38158;53.338;6.514;2023-07-28T11:52:34;21.90;99.90
52181;DHT22;38158;53.338;6.514;2023-07-28T11:55:03;22.00;99.90
52181;DHT22;38158;53.338;6.514;2023-07-28T11:57:30;22.10;99.90
52181;DHT22;38158;53.338;6.514;2023-07-28T12:00:04;22.20;99.90
52181;DHT22;38158;53.338;6.514;2023-07-28T12:02:31;22.20;99.90
52181;DHT22;38158;53.338;6.514;2023-07-28T12:04:58;22.30;99.90
52181;DHT22;38158;53.338;6.514;2023-07-28T12:07:31;22.30;99.90
52181;DHT22;38158;53.338;6.514;2023-07-28T12:10:06;22.40;99.90
52181;DHT22;38158;53.338;6.514;2023-07-28T12:12:45;22.60;99.90
52181;DHT22;38158;53.338;6.514;2023-07-28T12:15:28;22.60;99.90
52181;DHT22;38158;53.338;6.514;2023-07-28T12:18:14;22.80;99.90
52181;DHT22;38158;53.338;6.514;2023-07-28T12:20:47;22.80;99.90
52181;DHT22;38158;53.338;6.514;2023-07-28T12:23:22;22.90;99.90
52181;DHT22;38158;53.338;6.514;2023-07-28T12:25:49;23.00;99.90
52181;DHT22;38158;53.338;6.514;2023-07-28T12:28:16;23.10;99.90
52181;DHT22;38158;53.338;6.514;2023-07-28T12:30:41;23.20;99.90
52181;DHT22;38158;53.338;6.514;2023-07-28T12:33:08;23.40;99.90
52181;DHT22;38158;53.338;6.514;2023-07-28T12:35:34;23.40;99.90
52181;DHT22;38158;53.338;6.514;2023-07-28T12:38:01;23.50;99.90
52181;DHT22;38158;53.338;6.514;2023-07-28T12:40:28;23.60;99.90
52181;DHT22;38158;53.338;6.514;2023-07-28T12:42:55;23.50;99.90
52181;DHT22;38158;53.338;6.514;2023-07-28T12:45:20;23.50;99.90
52181;DHT22;38158;53.338;6.514;2023-07-28T12:47:47;23.40;99.90
52181;DHT22;38158;53.338;6.514;2023-07-28T12:50:12;23.30;99.90
52181;DHT22;38158;53.338;6.514;2023-07-28T12:52:38;23.40;99.90
52181;DHT22;38158;53.338;6.514;2023-07-28T12:55:04;23.40;99.90
52181;DHT22;38158;53.338;6.514;2023-07-28T12:57:31;23.50;99.90
52181;DHT22;38158;53.338;6.514;2023-07-28T12:59:57;23.40;99.90
52181;DHT22;38158;53.338;6.514;2023-07-28T13:02:23;23.30;99.90
52181;DHT22;38158;53.338;6.514;2023-07-28T13:04:48;23.30;99.90
52181;DHT22;38158;53.338;6.514;2023-07-28T13:07:14;23.30;99.90
52181;DHT22;38158;53.338;6.514;2023-07-28T13:09:40;23.30;99.90
52181;DHT22;38158;53.338;6.514;2023-07-28T13:12:07;23.50;99.90
52181;DHT22;38158;53.338;6.514;2023-07-28T13:14:33;23.70;99.90
52181;DHT22;38158;53.338;6.514;2023-07-28T13:16:59;23.70;99.90
52181;DHT22;38158;53.338;6.514;2023-07-28T13:19:25;23.80;99.90
52181;DHT22;38158;53.338;6.514;2023-07-28T13:21:51;23.90;99.90
52181;DHT22;38158;53.338;6.514;2023-07-28T13:24:16;24.00;99.90
52181;DHT22;38158;53.338;6.514;2023-07-28T13:26:42;24.00;99.90
52181;DHT22;38158;53.338;6.514;2023-07-28T13:29:08;24.00;99.90
52181;DHT22;38158;53.338;6.514;2023-07-28T13:31:33;23.90;99.90
52181;DHT22;38158;53.338;6.514;2023-07-28T13:33:59;24.00;99.90
52181;DHT22;38158;53.338;6.514;2023-07-28T13:36:25;24.10;99.90
52181;DHT22;38158;53.338;6.514;2023-07-28T13:38:50;24.30;99.90
52181;DHT22;38158;53.338;6.514;2023-07-28T13:41:16;24.20;99.90
52181;DHT22;38158;53.338;6.514;2023-07-28T13:43:42;24.00;99.90
52181;DHT22;38158;53.338;6.514;2023-07-28T13:46:07;24.00;99.90
52181;DHT22;38158;53.338;6.514;2023-07-28T13:48:34;24.00;99.90
52181;DHT22;38158;53.338;6.514;2023-07-28T13:51:01;23.90;99.90
52181;DHT22;38158;53.338;6.514;2023-07-28T13:53:27;23.90;99.90
52181;DHT22;38158;53.338;6.514;2023-07-28T13:55:54;24.00;99.90
52181;DHT22;38158;53.338;6.514;2023-07-28T13:58:20;24.10;99.90
52181;DHT22;38158;53.338;6.514;2023-07-28T14:00:46;24.10;99.90
52181;DHT22;38158;53.338;6.514;2023-07-28T14:03:12;24.00;99.90
52181;DHT22;38158;53.338;6.514;2023-07-28T14:05:38;24.10;99.90
52181;DHT22;38158;53.338;6.514;2023-07-28T14:08:04;24.10;99.90
52181;DHT22;38158;53.338;6.514;2023-07-28T14:10:29;24.10;99.90
52181;DHT22;38158;53.338;6.514;2023-07-28T14:12:57;24.20;99.90
52181;DHT22;38158;53.338;6.514;2023-07-28T14:15:23;24.40;99.90
52181;DHT22;38158;53.338;6.514;2023-07-28T14:17:49;24.50;99.90
52181;DHT22;38158;53.338;6.514;2023-07-28T14:20:15;24.40;99.90
52181;DHT22;38158;53.338;6.514;2023-07-28T14:22:40;24.30;99.90
52181;DHT22;38158;53.338;6.514;2023-07-28T14:25:06;24.30;99.90
52181;DHT22;38158;53.338;6.514;2023-07-28T14:27:32;24.40;99.90
52181;DHT22;38158;53.338;6.514;2023-07-28T14:29:58;24.40;99.90
52181;DHT22;38158;53.338;6.514;2023-07-28T14:32:23;24.40;99.90
52181;DHT22;38158;53.338;6.514;2023-07-28T14:34:49;24.40;99.90
52181;DHT22;38158;53.338;6.514;2023-07-28T14:37:15;24.50;99.90
52181;DHT22;38158;53.338;6.514;2023-07-28T14:39:41;24.40;99.90
52181;DHT22;38158;53.338;6.514;2023-07-28T14:42:06;24.30;99.90
52181;DHT22;38158;53.338;6.514;2023-07-28T14:44:32;24.40;99.90
52181;DHT22;38158;53.338;6.514;2023-07-28T14:46:58;24.40;99.90
52181;DHT22;38158;53.338;6.514;2023-07-28T14:49:23;24.40;99.90
52181;DHT22;38158;53.338;6.514;2023-07-28T14:51:55;24.40;99.90
52181;DHT22;38158;53.338;6.514;2023-07-28T14:54:21;24.30;99.90
52181;DHT22;38158;53.338;6.514;2023-07-28T14:56:47;24.20;99.90
52181;DHT22;38158;53.338;6.514;2023-07-28T14:59:12;24.10;99.90
52181;DHT22;38158;53.338;6.514;2023-07-28T15:01:38;24.00;99.90
52181;DHT22;38158;53.338;6.514;2023-07-28T15:04:04;23.90;99.90
52181;DHT22;38158;53.338;6.514;2023-07-28T15:06:31;23.60;99.90
52181;DHT22;38158;53.338;6.514;2023-07-28T15:08:56;23.40;99.90
52181;DHT22;38158;53.338;6.514;2023-07-28T15:11:22;23.30;99.90
52181;DHT22;38158;53.338;6.514;2023-07-28T15:13:49;23.40;99.90
52181;DHT22;38158;53.338;6.514;2023-07-28T15:16:15;23.50;99.90
52181;DHT22;38158;53.338;6.514;2023-07-28T15:18:41;23.50;99.90
52181;DHT22;38158;53.338;6.514;2023-07-28T15:21:06;23.60;99.90
52181;DHT22;38158;53.338;6.514;2023-07-28T15:23:32;23.60;99.90
52181;DHT22;38158;53.338;6.514;2023-07-28T15:25:58;23.50;99.90
52181;DHT22;38158;53.338;6.514;2023-07-28T15:28:24;23.30;99.90
52181;DHT22;38158;53.338;6.514;2023-07-28T15:30:50;23.20;99.90
52181;DHT22;38158;53.338;6.514;2023-07-28T15:33:17;23.20;99.90
52181;DHT22;38158;53.338;6.514;2023-07-28T15:35:44;23.10;99.90
52181;DHT22;38158;53.338;6.514;2023-07-28T15:38:10;23.10;99.90